sensor_id;sensor_type;location;lat;lon;timestamp;P1;durP1;ratioP1;P2;durP2;ratioP2
31298;SDS011;17927;52.350;13.402;2023-12-20T00:00:59;3.80;;;3.50;;
31298;SDS011;17927;52.350;13.402;2023-12-20T00:03:24;4.22;;;3.92;;
31298;SDS011;17927;52.350;13.402;2023-12-20T00:05:50;3.65;;;3.40;;
31298;SDS011;17927;52.350;13.402;2023-12-20T00:08:15;3.80;;;3.60;;
31298;SDS011;17927;52.350;13.402;2023-12-20T00:10:41;3.97;;;3.67;;
31298;SDS011;17927;52.350;13.402;2023-12-20T00:13:06;3.65;;;3.45;;
31298;SDS011;17927;52.350;13.402;2023-12-20T00:15:32;3.47;;;3.28;;
31298;SDS011;17927;52.350;13.402;2023-12-20T00:17:58;3.67;;;3.33;;
31298;SDS011;17927;52.350;13.402;2023-12-20T00:20:23;3.90;;;3.60;;
31298;SDS011;17927;52.350;13.402;2023-12-20T00:22:48;3.42;;;3.22;;
31298;SDS011;17927;52.350;13.402;2023-12-20T00:25:14;3.85;;;3.55;;
31298;SDS011;17927;52.350;13.402;2023-12-20T00:27:39;3.85;;;3.55;;
31298;SDS011;17927;52.350;13.402;2023-12-20T00:30:04;3.40;;;3.20;;
31298;SDS011;17927;52.350;13.402;2023-12-20T00:32:30;3.80;;;3.60;;
31298;SDS011;17927;52.350;13.402;2023-12-20T00:34:55;3.70;;;3.42;;
31298;SDS011;17927;52.350;13.402;2023-12-20T00:37:21;4.75;;;3.80;;
31298;SDS011;17927;52.350;13.402;2023-12-20T00:39:46;4.78;;;4.32;;
31298;SDS011;17927;52.350;13.402;2023-12-20T00:42:11;3.38;;;3.17;;
31298;SDS011;17927;52.350;13.402;2023-12-20T00:44:37;3.20;;;3.00;;
31298;SDS011;17927;52.350;13.402;2023-12-20T00:47:02;3.35;;;3.15;;
31298;SDS011;17927;52.350;13.402;2023-12-20T00:49:27;3.33;;;3.13;;
31298;SDS011;17927;52.350;13.402;2023-12-20T00:51:53;3.65;;;3.45;;
31298;SDS011;17927;52.350;13.402;2023-12-20T00:54:18;3.30;;;3.05;;
31298;SDS011;17927;52.350;13.402;2023-12-20T00:56:44;3.60;;;3.40;;
31298;SDS011;17927;52.350;13.402;2023-12-20T00:59:09;3.67;;;3.47;;
31298;SDS011;17927;52.350;13.402;2023-12-20T01:01:34;3.30;;;3.10;;
31298;SDS011;17927;52.350;13.402;2023-12-20T01:04:00;3.83;;;3.63;;
31298;SDS011;17927;52.350;13.402;2023-12-20T01:06:25;3.30;;;3.10;;
31298;SDS011;17927;52.350;13.402;2023-12-20T01:08:50;3.20;;;3.00;;
31298;SDS011;17927;52.350;13.402;2023-12-20T01:11:15;3.42;;;3.22;;
31298;SDS011;17927;52.350;13.402;2023-12-20T01:13:41;3.60;;;3.40;;
31298;SDS011;17927;52.350;13.402;2023-12-20T01:16:06;3.60;;;3.40;;
31298;SDS011;17927;52.350;13.402;2023-12-20T01:18:33;3.55;;;3.35;;
31298;SDS011;17927;52.350;13.402;2023-12-20T01:21:02;3.78;;;3.47;;
31298;SDS011;17927;52.350;13.402;2023-12-20T01:23:28;3.30;;;3.10;;
31298;SDS011;17927;52.350;13.402;2023-12-20T01:25:53;3.13;;;2.92;;
31298;SDS011;17927;52.350;13.402;2023-12-20T01:28:18;3.00;;;2.80;;
31298;SDS011;17927;52.350;13.402;2023-12-20T01:30:44;3.25;;;3.05;;
31298;SDS011;17927;52.350;13.402;2023-12-20T01:33:09;3.72;;;3.42;;
31298;SDS011;17927;52.350;13.402;2023-12-20T01:35:34;3.15;;;2.95;;
31298;SDS011;17927;52.350;13.402;2023-12-20T01:37:59;3.60;;;3.28;;
31298;SDS011;17927;52.350;13.402;2023-12-20T01:40:25;3.30;;;3.10;;
31298;SDS011;17927;52.350;13.402;2023-12-20T01:43:00;3.92;;;3.63;;
31298;SDS011;17927;52.350;13.402;2023-12-20T01:45:26;3.40;;;3.20;;
31298;SDS011;17927;52.350;13.402;2023-12-20T01:47:51;3.75;;;3.55;;
31298;SDS011;17927;52.350;13.402;2023-12-20T01:50:17;3.30;;;3.10;;
31298;SDS011;17927;52.350;13.402;2023-12-20T01:52:42;3.60;;;3.40;;
31298;SDS011;17927;52.350;13.402;2023-12-20T01:55:08;3.38;;;3.17;;
31298;SDS011;17927;52.350;13.402;2023-12-20T01:57:38;3.42;;;3.20;;
31298;SDS011;17927;52.350;13.402;2023-12-20T02:00:05;3.35;;;3.15;;
31298;SDS011;17927;52.350;13.402;2023-12-20T02:02:34;3.05;;;2.85;;
31298;SDS011;17927;52.350;13.402;2023-12-20T02:05:03;2.92;;;2.83;;
31298;SDS011;17927;52.350;13.402;2023-12-20T02:07:30;4.13;;;3.88;;
31298;SDS011;17927;52.350;13.402;2023-12-20T02:09:55;3.10;;;2.90;;
31298;SDS011;17927;52.350;13.402;2023-12-20T02:12:21;3.03;;;2.83;;
31298;SDS011;17927;52.350;13.402;2023-12-20T02:14:46;2.92;;;2.72;;
31298;SDS011;17927;52.350;13.402;2023-12-20T02:17:11;2.72;;;2.53;;
31298;SDS011;17927;52.350;13.402;2023-12-20T02:19:37;3.20;;;3.00;;
31298;SDS011;17927;52.350;13.402;2023-12-20T02:22:09;2.53;;;2.42;;
31298;SDS011;17927;52.350;13.402;2023-12-20T02:24:37;3.20;;;3.00;;
31298;SDS011;17927;52.350;13.402;2023-12-20T02:27:03;3.10;;;2.90;;
31298;SDS011;17927;52.350;13.402;2023-12-20T02:29:30;3.03;;;2.83;;
31298;SDS011;17927;52.350;13.402;2023-12-20T02:31:55;3.42;;;2.90;;
31298;SDS011;17927;52.350;13.402;2023-12-20T02:34:21;5.15;;;2.75;;
31298;SDS011;17927;52.350;13.402;2023-12-20T02:36:46;3.33;;;3.13;;
31298;SDS011;17927;52.350;13.402;2023-12-20T02:39:11;3.03;;;2.92;;
31298;SDS011;17927;52.350;13.402;2023-12-20T02:41:36;3.40;;;3.20;;
31298;SDS011;17927;52.350;13.402;2023-12-20T02:44:02;3.83;;;3.63;;
31298;SDS011;17927;52.350;13.402;2023-12-20T02:46:28;3.60;;;3.40;;
31298;SDS011;17927;52.350;13.402;2023-12-20T02:48:53;3.60;;;3.40;;
31298;SDS011;17927;52.350;13.402;2023-12-20T02:51:18;3.40;;;3.20;;
31298;SDS011;17927;52.350;13.402;2023-12-20T02:53:43;3.38;;;3.17;;
31298;SDS011;17927;52.350;13.402;2023-12-20T02:56:09;3.40;;;3.20;;
31298;SDS011;17927;52.350;13.402;2023-12-20T02:58:34;3.50;;;3.30;;
31298;SDS011;17927;52.350;13.402;2023-12-20T03:00:59;3.75;;;3.45;;
31298;SDS011;17927;52.350;13.402;2023-12-20T03:03:24;3.42;;;3.22;;
31298;SDS011;17927;52.350;13.402;2023-12-20T03:05:50;3.15;;;2.95;;
31298;SDS011;17927;52.350;13.402;2023-12-20T03:08:15;2.85;;;2.67;;
31298;SDS011;17927;52.350;13.402;2023-12-20T03:10:40;3.38;;;2.97;;
31298;SDS011;17927;52.350;13.402;2023-12-20T03:13:05;4.20;;;3.10;;
31298;SDS011;17927;52.350;13.402;2023-12-20T03:15:31;3.38;;;3.17;;
31298;SDS011;17927;52.350;13.402;2023-12-20T03:17:56;3.63;;;3.40;;
31298;SDS011;17927;52.350;13.402;2023-12-20T03:20:23;3.25;;;3.05;;
31298;SDS011;17927;52.350;13.402;2023-12-20T03:22:50;3.55;;;3.35;;
31298;SDS011;17927;52.350;13.402;2023-12-20T03:25:16;4.70;;;3.67;;
31298;SDS011;17927;52.350;13.402;2023-12-20T03:27:41;2.80;;;2.60;;
31298;SDS011;17927;52.350;13.402;2023-12-20T03:30:06;3.38;;;3.00;;
31298;SDS011;17927;52.350;13.402;2023-12-20T03:32:32;2.90;;;2.70;;
31298;SDS011;17927;52.350;13.402;2023-12-20T03:34:57;3.33;;;3.10;;
31298;SDS011;17927;52.350;13.402;2023-12-20T03:37:22;4.75;;;3.40;;
31298;SDS011;17927;52.350;13.402;2023-12-20T03:39:48;3.55;;;3.25;;
31298;SDS011;17927;52.350;13.402;2023-12-20T03:42:13;3.78;;;3.13;;
31298;SDS011;17927;52.350;13.402;2023-12-20T03:44:38;5.95;;;2.58;;
31298;SDS011;17927;52.350;13.402;2023-12-20T03:47:05;5.00;;;3.08;;
31298;SDS011;17927;52.350;13.402;2023-12-20T03:49:30;4.30;;;3.55;;
31298;SDS011;17927;52.350;13.402;2023-12-20T03:51:55;5.38;;;3.13;;
31298;SDS011;17927;52.350;13.402;2023-12-20T03:54:20;3.67;;;3.38;;
31298;SDS011;17927;52.350;13.402;2023-12-20T03:56:46;6.90;;;2.92;;
31298;SDS011;17927;52.350;13.402;2023-12-20T03:59:11;4.07;;;3.20;;
31298;SDS011;17927;52.350;13.402;2023-12-20T04:01:36;5.47;;;3.10;;
31298;SDS011;17927;52.350;13.402;2023-12-20T04:04:01;7.47;;;3.30;;
31298;SDS011;17927;52.350;13.402;2023-12-20T04:06:27;5.07;;;3.25;;
31298;SDS011;17927;52.350;13.402;2023-12-20T04:08:53;4.10;;;3.70;;
31298;SDS011;17927;52.350;13.402;2023-12-20T04:11:18;6.30;;;4.00;;
31298;SDS011;17927;52.350;13.402;2023-12-20T04:13:43;3.90;;;3.60;;
31298;SDS011;17927;52.350;13.402;2023-12-20T04:16:08;5.90;;;3.88;;
31298;SDS011;17927;52.350;13.402;2023-12-20T04:18:34;5.97;;;3.35;;
31298;SDS011;17927;52.350;13.402;2023-12-20T04:20:59;5.68;;;5.18;;
31298;SDS011;17927;52.350;13.402;2023-12-20T04:23:24;7.55;;;4.63;;
31298;SDS011;17927;52.350;13.402;2023-12-20T04:25:49;3.90;;;3.42;;
31298;SDS011;17927;52.350;13.402;2023-12-20T04:28:15;5.68;;;3.85;;
31298;SDS011;17927;52.350;13.402;2023-12-20T04:30:41;5.75;;;3.30;;
31298;SDS011;17927;52.350;13.402;2023-12-20T04:33:07;5.53;;;3.28;;
31298;SDS011;17927;52.350;13.402;2023-12-20T04:35:32;15.25;;;3.28;;
31298;SDS011;17927;52.350;13.402;2023-12-20T04:37:57;6.68;;;2.90;;
31298;SDS011;17927;52.350;13.402;2023-12-20T04:40:22;7.40;;;3.35;;
31298;SDS011;17927;52.350;13.402;2023-12-20T04:42:48;4.03;;;3.03;;
31298;SDS011;17927;52.350;13.402;2023-12-20T04:45:13;6.93;;;3.10;;
31298;SDS011;17927;52.350;13.402;2023-12-20T04:47:49;6.18;;;2.97;;
31298;SDS011;17927;52.350;13.402;2023-12-20T04:50:15;3.33;;;2.97;;
31298;SDS011;17927;52.350;13.402;2023-12-20T04:52:40;6.32;;;3.50;;
31298;SDS011;17927;52.350;13.402;2023-12-20T04:55:06;9.63;;;4.72;;
31298;SDS011;17927;52.350;13.402;2023-12-20T04:57:31;10.13;;;5.13;;
31298;SDS011;17927;52.350;13.402;2023-12-20T04:59:56;4.60;;;3.75;;
31298;SDS011;17927;52.350;13.402;2023-12-20T05:02:22;6.43;;;3.08;;
31298;SDS011;17927;52.350;13.402;2023-12-20T05:04:59;8.43;;;3.35;;
31298;SDS011;17927;52.350;13.402;2023-12-20T05:07:24;5.70;;;2.58;;
31298;SDS011;17927;52.350;13.402;2023-12-20T05:09:50;7.00;;;3.38;;
31298;SDS011;17927;52.350;13.402;2023-12-20T05:12:15;7.15;;;2.65;;
31298;SDS011;17927;52.350;13.402;2023-12-20T05:14:40;5.28;;;2.00;;
31298;SDS011;17927;52.350;13.402;2023-12-20T05:17:05;6.03;;;2.38;;
31298;SDS011;17927;52.350;13.402;2023-12-20T05:19:31;10.43;;;2.17;;
31298;SDS011;17927;52.350;13.402;2023-12-20T05:22:00;5.40;;;1.80;;
31298;SDS011;17927;52.350;13.402;2023-12-20T05:24:25;8.18;;;2.00;;
31298;SDS011;17927;52.350;13.402;2023-12-20T05:26:50;7.80;;;2.53;;
31298;SDS011;17927;52.350;13.402;2023-12-20T05:29:15;5.05;;;1.52;;
31298;SDS011;17927;52.350;13.402;2023-12-20T05:31:41;9.77;;;4.72;;
31298;SDS011;17927;52.350;13.402;2023-12-20T05:34:07;14.02;;;6.55;;
31298;SDS011;17927;52.350;13.402;2023-12-20T05:36:33;10.20;;;4.10;;
31298;SDS011;17927;52.350;13.402;2023-12-20T05:38:58;9.98;;;4.78;;
31298;SDS011;17927;52.350;13.402;2023-12-20T05:41:23;5.10;;;1.70;;
31298;SDS011;17927;52.350;13.402;2023-12-20T05:43:48;8.27;;;1.52;;
31298;SDS011;17927;52.350;13.402;2023-12-20T05:46:14;4.72;;;1.27;;
31298;SDS011;17927;52.350;13.402;2023-12-20T05:48:39;11.35;;;3.85;;
31298;SDS011;17927;52.350;13.402;2023-12-20T05:51:04;7.53;;;1.40;;
31298;SDS011;17927;52.350;13.402;2023-12-20T05:53:29;9.45;;;2.60;;
31298;SDS011;17927;52.350;13.402;2023-12-20T05:55:55;8.27;;;1.65;;
31298;SDS011;17927;52.350;13.402;2023-12-20T05:58:20;6.97;;;1.58;;
31298;SDS011;17927;52.350;13.402;2023-12-20T06:00:45;10.30;;;1.10;;
31298;SDS011;17927;52.350;13.402;2023-12-20T06:03:10;2.25;;;1.17;;
31298;SDS011;17927;52.350;13.402;2023-12-20T06:05:35;8.02;;;1.23;;
31298;SDS011;17927;52.350;13.402;2023-12-20T06:08:01;5.85;;;1.55;;
31298;SDS011;17927;52.350;13.402;2023-12-20T06:10:28;12.95;;;2.03;;
31298;SDS011;17927;52.350;13.402;2023-12-20T06:12:53;2.35;;;0.85;;
31298;SDS011;17927;52.350;13.402;2023-12-20T06:15:19;6.00;;;1.02;;
31298;SDS011;17927;52.350;13.402;2023-12-20T06:17:44;3.70;;;1.20;;
31298;SDS011;17927;52.350;13.402;2023-12-20T06:20:11;7.72;;;1.17;;
31298;SDS011;17927;52.350;13.402;2023-12-20T06:22:37;4.00;;;1.08;;
31298;SDS011;17927;52.350;13.402;2023-12-20T06:25:02;5.47;;;1.30;;
31298;SDS011;17927;52.350;13.402;2023-12-20T06:27:28;4.63;;;1.13;;
31298;SDS011;17927;52.350;13.402;2023-12-20T06:29:53;5.85;;;1.58;;
31298;SDS011;17927;52.350;13.402;2023-12-20T06:32:18;7.72;;;1.58;;
31298;SDS011;17927;52.350;13.402;2023-12-20T06:34:44;9.27;;;1.52;;
31298;SDS011;17927;52.350;13.402;2023-12-20T06:37:09;10.35;;;1.55;;
31298;SDS011;17927;52.350;13.402;2023-12-20T06:39:34;5.38;;;1.48;;
31298;SDS011;17927;52.350;13.402;2023-12-20T06:42:00;9.52;;;1.50;;
31298;SDS011;17927;52.350;13.402;2023-12-20T06:44:25;11.93;;;1.70;;
31298;SDS011;17927;52.350;13.402;2023-12-20T06:46:50;5.63;;;1.58;;
31298;SDS011;17927;52.350;13.402;2023-12-20T06:49:15;6.63;;;1.55;;
31298;SDS011;17927;52.350;13.402;2023-12-20T06:51:41;9.35;;;1.80;;
31298;SDS011;17927;52.350;13.402;2023-12-20T06:54:06;9.00;;;2.10;;
31298;SDS011;17927;52.350;13.402;2023-12-20T06:56:32;4.35;;;1.92;;
31298;SDS011;17927;52.350;13.402;2023-12-20T06:58:57;6.47;;;1.52;;
31298;SDS011;17927;52.350;13.402;2023-12-20T07:01:22;10.27;;;1.75;;
31298;SDS011;17927;52.350;13.402;2023-12-20T07:03:47;8.02;;;1.80;;
31298;SDS011;17927;52.350;13.402;2023-12-20T07:06:13;8.80;;;1.88;;
31298;SDS011;17927;52.350;13.402;2023-12-20T07:08:41;5.78;;;1.50;;
31298;SDS011;17927;52.350;13.402;2023-12-20T07:14:21;8.38;;;1.27;;
31298;SDS011;17927;52.350;13.402;2023-12-20T07:16:46;7.15;;;1.40;;
31298;SDS011;17927;52.350;13.402;2023-12-20T07:19:12;6.35;;;1.40;;
31298;SDS011;17927;52.350;13.402;2023-12-20T07:21:37;6.78;;;1.20;;
31298;SDS011;17927;52.350;13.402;2023-12-20T07:24:02;7.57;;;2.17;;
31298;SDS011;17927;52.350;13.402;2023-12-20T07:26:28;6.70;;;1.38;;
31298;SDS011;17927;52.350;13.402;2023-12-20T07:28:53;9.43;;;1.40;;
31298;SDS011;17927;52.350;13.402;2023-12-20T07:31:18;9.55;;;1.75;;
31298;SDS011;17927;52.350;13.402;2023-12-20T07:33:43;15.40;;;1.77;;
31298;SDS011;17927;52.350;13.402;2023-12-20T07:36:09;8.98;;;1.83;;
31298;SDS011;17927;52.350;13.402;2023-12-20T07:38:34;9.02;;;1.60;;
31298;SDS011;17927;52.350;13.402;2023-12-20T07:40:59;9.27;;;2.67;;
31298;SDS011;17927;52.350;13.402;2023-12-20T07:43:25;9.93;;;1.27;;
31298;SDS011;17927;52.350;13.402;2023-12-20T07:45:50;7.78;;;1.83;;
31298;SDS011;17927;52.350;13.402;2023-12-20T07:48:15;8.20;;;1.50;;
31298;SDS011;17927;52.350;13.402;2023-12-20T07:50:41;10.95;;;1.30;;
31298;SDS011;17927;52.350;13.402;2023-12-20T07:53:07;9.48;;;1.60;;
31298;SDS011;17927;52.350;13.402;2023-12-20T07:55:32;14.15;;;1.55;;
31298;SDS011;17927;52.350;13.402;2023-12-20T07:57:57;11.45;;;2.45;;
31298;SDS011;17927;52.350;13.402;2023-12-20T08:00:23;9.30;;;1.33;;
31298;SDS011;17927;52.350;13.402;2023-12-20T08:02:48;7.95;;;1.27;;
31298;SDS011;17927;52.350;13.402;2023-12-20T08:05:13;11.02;;;1.25;;
31298;SDS011;17927;52.350;13.402;2023-12-20T08:07:38;8.60;;;1.30;;
31298;SDS011;17927;52.350;13.402;2023-12-20T08:10:04;9.00;;;1.50;;
31298;SDS011;17927;52.350;13.402;2023-12-20T08:12:30;7.15;;;2.03;;
31298;SDS011;17927;52.350;13.402;2023-12-20T08:14:55;9.30;;;2.33;;
31298;SDS011;17927;52.350;13.402;2023-12-20T08:17:22;5.47;;;1.55;;
31298;SDS011;17927;52.350;13.402;2023-12-20T08:19:48;3.70;;;1.08;;
31298;SDS011;17927;52.350;13.402;2023-12-20T08:22:13;4.32;;;1.27;;
31298;SDS011;17927;52.350;13.402;2023-12-20T08:24:38;5.43;;;1.45;;
31298;SDS011;17927;52.350;13.402;2023-12-20T08:27:04;5.70;;;1.33;;
31298;SDS011;17927;52.350;13.402;2023-12-20T08:29:29;11.40;;;1.92;;
31298;SDS011;17927;52.350;13.402;2023-12-20T08:31:55;13.40;;;1.40;;
31298;SDS011;17927;52.350;13.402;2023-12-20T08:34:20;4.38;;;1.50;;
31298;SDS011;17927;52.350;13.402;2023-12-20T08:36:45;4.22;;;1.25;;
31298;SDS011;17927;52.350;13.402;2023-12-20T08:39:11;10.10;;;1.40;;
31298;SDS011;17927;52.350;13.402;2023-12-20T08:41:36;5.93;;;1.60;;
31298;SDS011;17927;52.350;13.402;2023-12-20T08:44:02;5.78;;;1.20;;
31298;SDS011;17927;52.350;13.402;2023-12-20T08:46:28;7.90;;;1.70;;
31298;SDS011;17927;52.350;13.402;2023-12-20T08:48:53;8.73;;;2.47;;
31298;SDS011;17927;52.350;13.402;2023-12-20T08:51:19;6.90;;;1.25;;
31298;SDS011;17927;52.350;13.402;2023-12-20T08:53:44;16.27;;;2.03;;
31298;SDS011;17927;52.350;13.402;2023-12-20T08:56:10;11.35;;;1.92;;
31298;SDS011;17927;52.350;13.402;2023-12-20T08:58:35;9.50;;;1.70;;
31298;SDS011;17927;52.350;13.402;2023-12-20T09:01:01;5.82;;;1.35;;
31298;SDS011;17927;52.350;13.402;2023-12-20T09:03:26;6.00;;;1.63;;
31298;SDS011;17927;52.350;13.402;2023-12-20T09:05:51;5.55;;;1.33;;
31298;SDS011;17927;52.350;13.402;2023-12-20T09:08:16;8.80;;;1.70;;
31298;SDS011;17927;52.350;13.402;2023-12-20T09:10:41;6.82;;;1.25;;
31298;SDS011;17927;52.350;13.402;2023-12-20T09:13:07;5.95;;;1.45;;
31298;SDS011;17927;52.350;13.402;2023-12-20T09:15:32;14.18;;;1.50;;
31298;SDS011;17927;52.350;13.402;2023-12-20T09:17:59;9.35;;;2.15;;
31298;SDS011;17927;52.350;13.402;2023-12-20T09:20:24;12.05;;;1.40;;
31298;SDS011;17927;52.350;13.402;2023-12-20T09:22:52;5.40;;;1.50;;
31298;SDS011;17927;52.350;13.402;2023-12-20T09:25:17;14.55;;;1.63;;
31298;SDS011;17927;52.350;13.402;2023-12-20T09:27:43;3.53;;;1.00;;
31298;SDS011;17927;52.350;13.402;2023-12-20T09:30:08;4.95;;;1.10;;
31298;SDS011;17927;52.350;13.402;2023-12-20T09:32:34;7.72;;;1.60;;
31298;SDS011;17927;52.350;13.402;2023-12-20T09:34:59;7.43;;;1.80;;
31298;SDS011;17927;52.350;13.402;2023-12-20T09:37:27;11.68;;;1.67;;
31298;SDS011;17927;52.350;13.402;2023-12-20T09:39:53;4.45;;;1.25;;
31298;SDS011;17927;52.350;13.402;2023-12-20T09:43:04;4.78;;;1.30;;
31298;SDS011;17927;52.350;13.402;2023-12-20T09:45:21;9.07;;;1.33;;
31298;SDS011;17927;52.350;13.402;2023-12-20T09:47:47;9.70;;;2.13;;
31298;SDS011;17927;52.350;13.402;2023-12-20T09:50:14;9.77;;;2.25;;
31298;SDS011;17927;52.350;13.402;2023-12-20T09:52:41;8.18;;;1.20;;
31298;SDS011;17927;52.350;13.402;2023-12-20T09:55:08;6.88;;;1.52;;
31298;SDS011;17927;52.350;13.402;2023-12-20T09:57:34;10.82;;;2.25;;
31298;SDS011;17927;52.350;13.402;2023-12-20T10:00:00;10.40;;;1.60;;
31298;SDS011;17927;52.350;13.402;2023-12-20T10:02:25;9.23;;;1.92;;
31298;SDS011;17927;52.350;13.402;2023-12-20T10:04:54;5.43;;;1.55;;
31298;SDS011;17927;52.350;13.402;2023-12-20T10:07:20;10.90;;;1.52;;
31298;SDS011;17927;52.350;13.402;2023-12-20T10:09:47;6.63;;;1.70;;
31298;SDS011;17927;52.350;13.402;2023-12-20T10:12:12;4.60;;;1.65;;
31298;SDS011;17927;52.350;13.402;2023-12-20T10:14:38;4.95;;;1.33;;
31298;SDS011;17927;52.350;13.402;2023-12-20T10:17:05;4.93;;;1.63;;
31298;SDS011;17927;52.350;13.402;2023-12-20T10:19:31;7.47;;;1.60;;
31298;SDS011;17927;52.350;13.402;2023-12-20T10:22:00;16.60;;;2.38;;
31298;SDS011;17927;52.350;13.402;2023-12-20T10:24:25;9.95;;;1.95;;
31298;SDS011;17927;52.350;13.402;2023-12-20T10:27:03;6.50;;;1.30;;
31298;SDS011;17927;52.350;13.402;2023-12-20T10:29:35;14.73;;;3.22;;
31298;SDS011;17927;52.350;13.402;2023-12-20T10:34:49;9.55;;;2.22;;
31298;SDS011;17927;52.350;13.402;2023-12-20T10:37:15;9.25;;;2.67;;
31298;SDS011;17927;52.350;13.402;2023-12-20T10:39:41;10.63;;;2.35;;
31298;SDS011;17927;52.350;13.402;2023-12-20T10:42:08;7.65;;;1.50;;
31298;SDS011;17927;52.350;13.402;2023-12-20T10:44:36;13.45;;;2.00;;
31298;SDS011;17927;52.350;13.402;2023-12-20T10:47:01;10.38;;;1.90;;
31298;SDS011;17927;52.350;13.402;2023-12-20T10:49:27;14.38;;;2.85;;
31298;SDS011;17927;52.350;13.402;2023-12-20T10:51:54;10.05;;;2.25;;
31298;SDS011;17927;52.350;13.402;2023-12-20T10:54:22;12.18;;;2.47;;
31298;SDS011;17927;52.350;13.402;2023-12-20T10:56:47;7.25;;;1.95;;
31298;SDS011;17927;52.350;13.402;2023-12-20T10:59:15;12.38;;;2.00;;
31298;SDS011;17927;52.350;13.402;2023-12-20T11:01:44;6.93;;;1.58;;
31298;SDS011;17927;52.350;13.402;2023-12-20T11:04:13;10.52;;;1.90;;
31298;SDS011;17927;52.350;13.402;2023-12-20T11:06:49;8.05;;;1.88;;
31298;SDS011;17927;52.350;13.402;2023-12-20T11:14:49;6.90;;;1.83;;
31298;SDS011;17927;52.350;13.402;2023-12-20T11:17:17;8.00;;;1.80;;
31298;SDS011;17927;52.350;13.402;2023-12-20T11:20:03;8.65;;;1.88;;
31298;SDS011;17927;52.350;13.402;2023-12-20T11:22:30;8.93;;;1.83;;
31298;SDS011;17927;52.350;13.402;2023-12-20T11:25:02;10.65;;;3.08;;
31298;SDS011;17927;52.350;13.402;2023-12-20T11:27:30;6.60;;;1.70;;
31298;SDS011;17927;52.350;13.402;2023-12-20T11:29:56;7.93;;;1.63;;
31298;SDS011;17927;52.350;13.402;2023-12-20T11:34:53;9.45;;;1.95;;
31298;SDS011;17927;52.350;13.402;2023-12-20T11:37:19;12.18;;;2.70;;
31298;SDS011;17927;52.350;13.402;2023-12-20T11:39:45;10.88;;;2.15;;
31298;SDS011;17927;52.350;13.402;2023-12-20T11:42:10;8.48;;;1.75;;
31298;SDS011;17927;52.350;13.402;2023-12-20T11:44:36;5.68;;;1.70;;
31298;SDS011;17927;52.350;13.402;2023-12-20T11:47:02;3.30;;;1.40;;
31298;SDS011;17927;52.350;13.402;2023-12-20T11:49:27;6.95;;;1.33;;
31298;SDS011;17927;52.350;13.402;2023-12-20T11:51:55;7.72;;;2.17;;
31298;SDS011;17927;52.350;13.402;2023-12-20T11:54:21;9.35;;;1.52;;
31298;SDS011;17927;52.350;13.402;2023-12-20T11:56:46;6.70;;;1.80;;
31298;SDS011;17927;52.350;13.402;2023-12-20T11:59:12;10.30;;;1.70;;
31298;SDS011;17927;52.350;13.402;2023-12-20T12:01:38;11.13;;;2.38;;
31298;SDS011;17927;52.350;13.402;2023-12-20T12:04:03;5.88;;;1.38;;
31298;SDS011;17927;52.350;13.402;2023-12-20T12:06:29;10.75;;;1.48;;
31298;SDS011;17927;52.350;13.402;2023-12-20T12:08:55;4.50;;;1.42;;
31298;SDS011;17927;52.350;13.402;2023-12-20T12:11:20;5.35;;;1.25;;
31298;SDS011;17927;52.350;13.402;2023-12-20T12:13:46;10.30;;;1.80;;
31298;SDS011;17927;52.350;13.402;2023-12-20T12:16:11;9.02;;;2.20;;
31298;SDS011;17927;52.350;13.402;2023-12-20T12:18:36;8.77;;;2.55;;
31298;SDS011;17927;52.350;13.402;2023-12-20T12:21:02;3.95;;;1.30;;
31298;SDS011;17927;52.350;13.402;2023-12-20T12:23:27;9.00;;;2.10;;
31298;SDS011;17927;52.350;13.402;2023-12-20T12:25:53;4.57;;;1.40;;
31298;SDS011;17927;52.350;13.402;2023-12-20T12:28:20;6.97;;;1.30;;
31298;SDS011;17927;52.350;13.402;2023-12-20T12:30:58;6.22;;;1.60;;
31298;SDS011;17927;52.350;13.402;2023-12-20T12:33:24;4.85;;;1.80;;
31298;SDS011;17927;52.350;13.402;2023-12-20T12:35:50;6.15;;;1.30;;
31298;SDS011;17927;52.350;13.402;2023-12-20T12:38:16;4.68;;;1.80;;
31298;SDS011;17927;52.350;13.402;2023-12-20T12:40:42;7.43;;;2.00;;
31298;SDS011;17927;52.350;13.402;2023-12-20T12:43:08;7.38;;;2.00;;
31298;SDS011;17927;52.350;13.402;2023-12-20T12:45:33;7.38;;;3.50;;
31298;SDS011;17927;52.350;13.402;2023-12-20T12:47:58;4.28;;;1.65;;
31298;SDS011;17927;52.350;13.402;2023-12-20T12:50:24;5.95;;;1.77;;
31298;SDS011;17927;52.350;13.402;2023-12-20T12:55:34;6.22;;;2.00;;
31298;SDS011;17927;52.350;13.402;2023-12-20T12:58:00;7.50;;;1.77;;
31298;SDS011;17927;52.350;13.402;2023-12-20T13:00:25;5.97;;;1.63;;
31298;SDS011;17927;52.350;13.402;2023-12-20T13:02:51;7.03;;;2.17;;
31298;SDS011;17927;52.350;13.402;2023-12-20T13:05:16;8.50;;;1.70;;
31298;SDS011;17927;52.350;13.402;2023-12-20T13:07:42;8.60;;;1.85;;
31298;SDS011;17927;52.350;13.402;2023-12-20T13:10:10;11.07;;;1.88;;
31298;SDS011;17927;52.350;13.402;2023-12-20T13:12:35;8.65;;;2.28;;
31298;SDS011;17927;52.350;13.402;2023-12-20T13:15:01;6.28;;;2.17;;
31298;SDS011;17927;52.350;13.402;2023-12-20T13:17:26;6.50;;;2.25;;
31298;SDS011;17927;52.350;13.402;2023-12-20T13:19:51;6.15;;;1.88;;
31298;SDS011;17927;52.350;13.402;2023-12-20T13:22:17;5.68;;;1.75;;
31298;SDS011;17927;52.350;13.402;2023-12-20T13:24:42;7.50;;;2.72;;
31298;SDS011;17927;52.350;13.402;2023-12-20T13:27:09;6.70;;;1.73;;
31298;SDS011;17927;52.350;13.402;2023-12-20T13:29:34;9.23;;;2.50;;
31298;SDS011;17927;52.350;13.402;2023-12-20T13:31:59;4.05;;;1.63;;
31298;SDS011;17927;52.350;13.402;2023-12-20T13:34:24;9.50;;;1.80;;
31298;SDS011;17927;52.350;13.402;2023-12-20T13:36:50;2.10;;;1.90;;
31298;SDS011;17927;52.350;13.402;2023-12-20T13:39:15;7.47;;;2.15;;
31298;SDS011;17927;52.350;13.402;2023-12-20T13:41:41;8.68;;;2.05;;
31298;SDS011;17927;52.350;13.402;2023-12-20T13:44:07;6.22;;;1.90;;
31298;SDS011;17927;52.350;13.402;2023-12-20T13:46:33;4.93;;;1.95;;
31298;SDS011;17927;52.350;13.402;2023-12-20T13:48:58;4.35;;;1.48;;
31298;SDS011;17927;52.350;13.402;2023-12-20T13:51:23;4.25;;;1.38;;
31298;SDS011;17927;52.350;13.402;2023-12-20T13:53:48;4.80;;;1.20;;
31298;SDS011;17927;52.350;13.402;2023-12-20T13:56:16;5.35;;;1.63;;
31298;SDS011;17927;52.350;13.402;2023-12-20T13:58:42;2.40;;;0.85;;
31298;SDS011;17927;52.350;13.402;2023-12-20T14:01:10;1.40;;;0.75;;
31298;SDS011;17927;52.350;13.402;2023-12-20T14:03:36;3.80;;;0.90;;
31298;SDS011;17927;52.350;13.402;2023-12-20T14:06:01;0.82;;;0.57;;
31298;SDS011;17927;52.350;13.402;2023-12-20T14:08:27;2.47;;;0.30;;
31298;SDS011;17927;52.350;13.402;2023-12-20T14:10:52;2.80;;;0.73;;
31298;SDS011;17927;52.350;13.402;2023-12-20T14:13:18;2.35;;;0.63;;
31298;SDS011;17927;52.350;13.402;2023-12-20T14:15:43;1.90;;;0.50;;
31298;SDS011;17927;52.350;13.402;2023-12-20T14:18:09;1.23;;;0.47;;
31298;SDS011;17927;52.350;13.402;2023-12-20T14:20:35;1.13;;;0.57;;
31298;SDS011;17927;52.350;13.402;2023-12-20T14:23:01;0.90;;;0.50;;
31298;SDS011;17927;52.350;13.402;2023-12-20T14:25:26;4.78;;;0.60;;
31298;SDS011;17927;52.350;13.402;2023-12-20T14:27:52;0.68;;;0.50;;
31298;SDS011;17927;52.350;13.402;2023-12-20T14:30:17;0.63;;;0.52;;
31298;SDS011;17927;52.350;13.402;2023-12-20T14:32:42;2.97;;;1.00;;
31298;SDS011;17927;52.350;13.402;2023-12-20T14:35:08;1.17;;;0.85;;
31298;SDS011;17927;52.350;13.402;2023-12-20T14:37:34;0.95;;;0.38;;
31298;SDS011;17927;52.350;13.402;2023-12-20T14:40:00;2.20;;;0.80;;
31298;SDS011;17927;52.350;13.402;2023-12-20T14:42:25;0.93;;;0.65;;